St. Day, United Kingdom
Current Conditions -  °F | °C
As of 12:50 PM on Thursday 30 Oct 2014 (Local Time) from EGDR Reporting Station
Moderate Fog Moderate Fog  
Wind Chill: 14°   Ceiling: Unl
Heat Index: 14°   Visibility: 0.12mi
Dew Point: 14°   Wind: 12mph
Humidity: 100%   Direction: 180°S
Pressure: 29.97"   Gusts: 23mph
Location:  50.24°N, 5.19°W
Report Text: EGDR 301250Z 18010G20KT 0200 FG VV/// 14/14 Q1015 RED NOSIG
Loading
Personal Weather Stations






























Interactive Weather Map
Tropical Storm Tracking
New forecast layout! Learn more

10-Day Weather Forecast

Advertisements
Track Severe Weather on mobile